sensor_id;sensor_type;location;lat;lon;timestamp;pressure;altitude;pressure_sealevel;temperature
45393;BMP280;31129;44.810;10.334;2023-04-06T00:00:47;101072.50;;;7.58
45393;BMP280;31129;44.810;10.334;2023-04-06T00:03:12;101076.56;;;7.67
45393;BMP280;31129;44.810;10.334;2023-04-06T00:05:38;101073.22;;;7.46
45393;BMP280;31129;44.810;10.334;2023-04-06T00:08:03;101074.16;;;7.69
45393;BMP280;31129;44.810;10.334;2023-04-06T00:10:29;101086.84;;;7.59
45393;BMP280;31129;44.810;10.334;2023-04-06T00:12:54;101080.75;;;7.42
45393;BMP280;31129;44.810;10.334;2023-04-06T00:15:21;101081.56;;;7.26
45393;BMP280;31129;44.810;10.334;2023-04-06T00:17:47;101086.38;;;7.35
45393;BMP280;31129;44.810;10.334;2023-04-06T00:20:12;101086.88;;;7.30
45393;BMP280;31129;44.810;10.334;2023-04-06T00:22:38;101086.97;;;7.26
45393;BMP280;31129;44.810;10.334;2023-04-06T00:25:03;101085.13;;;7.23
45393;BMP280;31129;44.810;10.334;2023-04-06T00:27:29;101085.41;;;7.13
45393;BMP280;31129;44.810;10.334;2023-04-06T00:29:55;101085.06;;;7.11
45393;BMP280;31129;44.810;10.334;2023-04-06T00:32:23;101085.66;;;7.18
45393;BMP280;31129;44.810;10.334;2023-04-06T00:34:48;101090.22;;;7.21
45393;BMP280;31129;44.810;10.334;2023-04-06T00:37:14;101094.91;;;7.21
45393;BMP280;31129;44.810;10.334;2023-04-06T00:39:39;101083.94;;;7.24
45393;BMP280;31129;44.810;10.334;2023-04-06T00:42:11;101085.69;;;7.31
45393;BMP280;31129;44.810;10.334;2023-04-06T00:44:43;101085.84;;;7.11
45393;BMP280;31129;44.810;10.334;2023-04-06T00:47:09;101084.00;;;7.08
45393;BMP280;31129;44.810;10.334;2023-04-06T00:49:34;101086.94;;;7.14
45393;BMP280;31129;44.810;10.334;2023-04-06T00:52:00;101084.47;;;6.90
45393;BMP280;31129;44.810;10.334;2023-04-06T00:54:27;101078.19;;;6.93
45393;BMP280;31129;44.810;10.334;2023-04-06T00:56:53;101084.88;;;6.89
45393;BMP280;31129;44.810;10.334;2023-04-06T00:59:18;101092.06;;;6.96
45393;BMP280;31129;44.810;10.334;2023-04-06T01:01:44;101081.31;;;6.92
45393;BMP280;31129;44.810;10.334;2023-04-06T01:04:31;101074.41;;;6.58
45393;BMP280;31129;44.810;10.334;2023-04-06T01:06:57;101077.63;;;6.53
45393;BMP280;31129;44.810;10.334;2023-04-06T01:09:29;101075.06;;;6.79
45393;BMP280;31129;44.810;10.334;2023-04-06T01:12:01;101066.25;;;6.75
45393;BMP280;31129;44.810;10.334;2023-04-06T01:14:29;101060.34;;;6.64
45393;BMP280;31129;44.810;10.334;2023-04-06T01:16:59;101057.28;;;6.62
45393;BMP280;31129;44.810;10.334;2023-04-06T01:19:30;101056.03;;;6.50
45393;BMP280;31129;44.810;10.334;2023-04-06T01:21:56;101047.28;;;6.58
45393;BMP280;31129;44.810;10.334;2023-04-06T01:24:41;101052.97;;;6.48
45393;BMP280;31129;44.810;10.334;2023-04-06T01:27:10;101053.56;;;6.55
45393;BMP280;31129;44.810;10.334;2023-04-06T01:29:49;101048.66;;;6.50
45393;BMP280;31129;44.810;10.334;2023-04-06T01:32:25;101049.09;;;6.49
45393;BMP280;31129;44.810;10.334;2023-04-06T01:34:51;101048.31;;;6.32
45393;BMP280;31129;44.810;10.334;2023-04-06T01:37:16;101052.72;;;6.42
45393;BMP280;31129;44.810;10.334;2023-04-06T01:39:43;101051.28;;;6.38
45393;BMP280;31129;44.810;10.334;2023-04-06T01:42:11;101048.84;;;6.43
45393;BMP280;31129;44.810;10.334;2023-04-06T01:44:38;101055.44;;;6.58
45393;BMP280;31129;44.810;10.334;2023-04-06T01:47:10;101051.19;;;6.57
45393;BMP280;31129;44.810;10.334;2023-04-06T01:49:36;101047.81;;;6.53
45393;BMP280;31129;44.810;10.334;2023-04-06T01:52:02;101052.22;;;6.47
45393;BMP280;31129;44.810;10.334;2023-04-06T01:54:27;101046.28;;;6.36
45393;BMP280;31129;44.810;10.334;2023-04-06T01:57:10;101056.28;;;6.39
45393;BMP280;31129;44.810;10.334;2023-04-06T01:59:42;101052.56;;;6.33
45393;BMP280;31129;44.810;10.334;2023-04-06T02:02:21;101048.75;;;6.14
45393;BMP280;31129;44.810;10.334;2023-04-06T02:04:56;101059.38;;;6.05
45393;BMP280;31129;44.810;10.334;2023-04-06T02:07:22;101058.38;;;5.99
45393;BMP280;31129;44.810;10.334;2023-04-06T02:09:47;101053.56;;;6.23
45393;BMP280;31129;44.810;10.334;2023-04-06T02:12:24;101050.72;;;5.94
45393;BMP280;31129;44.810;10.334;2023-04-06T02:14:49;101050.38;;;5.92
45393;BMP280;31129;44.810;10.334;2023-04-06T02:17:15;101059.81;;;6.04
45393;BMP280;31129;44.810;10.334;2023-04-06T02:19:40;101049.94;;;6.13
45393;BMP280;31129;44.810;10.334;2023-04-06T02:22:06;101051.50;;;5.94
45393;BMP280;31129;44.810;10.334;2023-04-06T02:24:31;101045.53;;;6.03
45393;BMP280;31129;44.810;10.334;2023-04-06T02:26:57;101044.63;;;5.90
45393;BMP280;31129;44.810;10.334;2023-04-06T02:29:22;101049.94;;;5.77
45393;BMP280;31129;44.810;10.334;2023-04-06T02:31:48;101054.22;;;5.58
45393;BMP280;31129;44.810;10.334;2023-04-06T02:34:14;101055.22;;;5.65
45393;BMP280;31129;44.810;10.334;2023-04-06T02:36:46;101053.53;;;5.54
45393;BMP280;31129;44.810;10.334;2023-04-06T02:39:13;101049.28;;;5.53
45393;BMP280;31129;44.810;10.334;2023-04-06T02:41:39;101060.00;;;5.77
45393;BMP280;31129;44.810;10.334;2023-04-06T02:44:08;101051.41;;;5.62
45393;BMP280;31129;44.810;10.334;2023-04-06T02:46:40;101058.38;;;5.43
45393;BMP280;31129;44.810;10.334;2023-04-06T02:49:06;101065.56;;;5.50
45393;BMP280;31129;44.810;10.334;2023-04-06T02:51:33;101060.53;;;5.52
45393;BMP280;31129;44.810;10.334;2023-04-06T02:54:10;101063.84;;;5.40
45393;BMP280;31129;44.810;10.334;2023-04-06T02:56:36;101069.34;;;5.36
45393;BMP280;31129;44.810;10.334;2023-04-06T02:59:01;101067.09;;;5.31
45393;BMP280;31129;44.810;10.334;2023-04-06T03:01:33;101059.63;;;5.39
45393;BMP280;31129;44.810;10.334;2023-04-06T03:04:02;101060.22;;;5.46
45393;BMP280;31129;44.810;10.334;2023-04-06T03:06:28;101060.91;;;5.30
45393;BMP280;31129;44.810;10.334;2023-04-06T03:09:02;101076.22;;;5.41
45393;BMP280;31129;44.810;10.334;2023-04-06T03:11:30;101068.38;;;5.26
45393;BMP280;31129;44.810;10.334;2023-04-06T03:13:55;101069.72;;;5.35
45393;BMP280;31129;44.810;10.334;2023-04-06T03:16:21;101071.47;;;5.25
45393;BMP280;31129;44.810;10.334;2023-04-06T03:18:46;101067.03;;;5.35
45393;BMP280;31129;44.810;10.334;2023-04-06T03:21:13;101064.63;;;5.40
45393;BMP280;31129;44.810;10.334;2023-04-06T03:23:46;101070.97;;;5.30
45393;BMP280;31129;44.810;10.334;2023-04-06T03:26:14;101068.44;;;5.43
45393;BMP280;31129;44.810;10.334;2023-04-06T03:28:40;101069.13;;;5.27
45393;BMP280;31129;44.810;10.334;2023-04-06T03:31:06;101064.22;;;5.42
45393;BMP280;31129;44.810;10.334;2023-04-06T03:33:41;101063.03;;;5.23
45393;BMP280;31129;44.810;10.334;2023-04-06T03:36:10;101058.41;;;5.20
45393;BMP280;31129;44.810;10.334;2023-04-06T03:38:39;101064.50;;;5.04
45393;BMP280;31129;44.810;10.334;2023-04-06T03:41:09;101057.66;;;5.19
45393;BMP280;31129;44.810;10.334;2023-04-06T03:43:36;101055.91;;;5.29
45393;BMP280;31129;44.810;10.334;2023-04-06T03:46:02;101057.28;;;5.41
45393;BMP280;31129;44.810;10.334;2023-04-06T03:48:27;101056.75;;;5.46
45393;BMP280;31129;44.810;10.334;2023-04-06T03:50:53;101058.81;;;5.18
45393;BMP280;31129;44.810;10.334;2023-04-06T03:53:18;101058.78;;;5.22
45393;BMP280;31129;44.810;10.334;2023-04-06T03:55:44;101058.78;;;5.42
45393;BMP280;31129;44.810;10.334;2023-04-06T03:58:09;101053.50;;;5.35
45393;BMP280;31129;44.810;10.334;2023-04-06T04:00:37;101052.16;;;5.03
45393;BMP280;31129;44.810;10.334;2023-04-06T04:03:03;101052.66;;;5.18
45393;BMP280;31129;44.810;10.334;2023-04-06T04:05:28;101050.28;;;5.20
45393;BMP280;31129;44.810;10.334;2023-04-06T04:07:54;101054.06;;;5.26
45393;BMP280;31129;44.810;10.334;2023-04-06T04:10:23;101043.69;;;5.24
45393;BMP280;31129;44.810;10.334;2023-04-06T04:12:49;101042.16;;;5.23
45393;BMP280;31129;44.810;10.334;2023-04-06T04:15:14;101043.78;;;5.17
45393;BMP280;31129;44.810;10.334;2023-04-06T04:17:40;101046.19;;;5.12
45393;BMP280;31129;44.810;10.334;2023-04-06T04:20:12;101037.31;;;5.11
45393;BMP280;31129;44.810;10.334;2023-04-06T04:22:37;101038.84;;;5.12
45393;BMP280;31129;44.810;10.334;2023-04-06T04:25:03;101041.41;;;5.19
45393;BMP280;31129;44.810;10.334;2023-04-06T04:27:30;101049.91;;;5.21
45393;BMP280;31129;44.810;10.334;2023-04-06T04:29:56;101043.50;;;5.32
45393;BMP280;31129;44.810;10.334;2023-04-06T04:32:21;101051.78;;;5.24
45393;BMP280;31129;44.810;10.334;2023-04-06T04:34:49;101061.00;;;5.27
45393;BMP280;31129;44.810;10.334;2023-04-06T04:37:29;101057.66;;;5.19
45393;BMP280;31129;44.810;10.334;2023-04-06T04:39:55;101061.13;;;5.20
45393;BMP280;31129;44.810;10.334;2023-04-06T04:42:20;101058.78;;;5.22
45393;BMP280;31129;44.810;10.334;2023-04-06T04:44:50;101061.81;;;5.44
45393;BMP280;31129;44.810;10.334;2023-04-06T04:47:25;101056.09;;;5.42
45393;BMP280;31129;44.810;10.334;2023-04-06T04:49:51;101072.09;;;5.33
45393;BMP280;31129;44.810;10.334;2023-04-06T04:52:21;101065.09;;;5.35
45393;BMP280;31129;44.810;10.334;2023-04-06T04:54:55;101067.34;;;5.40
45393;BMP280;31129;44.810;10.334;2023-04-06T04:57:25;101072.44;;;5.35
45393;BMP280;31129;44.810;10.334;2023-04-06T04:59:50;101072.16;;;5.29
45393;BMP280;31129;44.810;10.334;2023-04-06T05:02:17;101075.19;;;5.31
45393;BMP280;31129;44.810;10.334;2023-04-06T05:04:52;101081.44;;;5.28
45393;BMP280;31129;44.810;10.334;2023-04-06T05:07:23;101081.44;;;5.28
45393;BMP280;31129;44.810;10.334;2023-04-06T05:09:50;101084.22;;;5.44
45393;BMP280;31129;44.810;10.334;2023-04-06T05:12:18;101086.03;;;5.31
45393;BMP280;31129;44.810;10.334;2023-04-06T05:14:53;101080.78;;;5.24
45393;BMP280;31129;44.810;10.334;2023-04-06T05:17:20;101089.31;;;5.22
45393;BMP280;31129;44.810;10.334;2023-04-06T05:19:46;101079.69;;;5.18
45393;BMP280;31129;44.810;10.334;2023-04-06T05:22:14;101088.28;;;5.36
45393;BMP280;31129;44.810;10.334;2023-04-06T05:24:45;101091.50;;;5.47
45393;BMP280;31129;44.810;10.334;2023-04-06T05:27:11;101083.66;;;5.33
45393;BMP280;31129;44.810;10.334;2023-04-06T05:29:37;101085.56;;;5.36
45393;BMP280;31129;44.810;10.334;2023-04-06T05:32:02;101088.97;;;5.40
45393;BMP280;31129;44.810;10.334;2023-04-06T05:34:28;101088.47;;;5.45
45393;BMP280;31129;44.810;10.334;2023-04-06T05:36:54;101087.88;;;5.57
45393;BMP280;31129;44.810;10.334;2023-04-06T05:39:23;101087.41;;;5.59
45393;BMP280;31129;44.810;10.334;2023-04-06T05:41:51;101093.09;;;5.65
45393;BMP280;31129;44.810;10.334;2023-04-06T05:44:25;101086.47;;;5.69
45393;BMP280;31129;44.810;10.334;2023-04-06T05:47:00;101088.69;;;5.74
45393;BMP280;31129;44.810;10.334;2023-04-06T05:49:26;101091.53;;;5.87
45393;BMP280;31129;44.810;10.334;2023-04-06T05:51:52;101100.41;;;5.87
45393;BMP280;31129;44.810;10.334;2023-04-06T05:54:18;101101.28;;;6.01
45393;BMP280;31129;44.810;10.334;2023-04-06T05:56:43;101105.75;;;6.07
45393;BMP280;31129;44.810;10.334;2023-04-06T05:59:10;101104.66;;;6.05
45393;BMP280;31129;44.810;10.334;2023-04-06T06:01:36;101104.00;;;6.01
45393;BMP280;31129;44.810;10.334;2023-04-06T06:04:01;101104.75;;;6.01
45393;BMP280;31129;44.810;10.334;2023-04-06T06:06:30;101102.81;;;6.18
45393;BMP280;31129;44.810;10.334;2023-04-06T06:09:12;101105.88;;;6.20
45393;BMP280;31129;44.810;10.334;2023-04-06T06:11:44;101102.47;;;6.00
45393;BMP280;31129;44.810;10.334;2023-04-06T06:14:12;101104.03;;;6.17
45393;BMP280;31129;44.810;10.334;2023-04-06T06:16:42;101112.31;;;6.26
45393;BMP280;31129;44.810;10.334;2023-04-06T06:19:10;101109.78;;;6.35
45393;BMP280;31129;44.810;10.334;2023-04-06T06:21:36;101113.88;;;6.43
45393;BMP280;31129;44.810;10.334;2023-04-06T06:24:03;101106.66;;;6.53
45393;BMP280;31129;44.810;10.334;2023-04-06T06:26:29;101105.50;;;6.54
45393;BMP280;31129;44.810;10.334;2023-04-06T06:28:55;101106.84;;;6.62
45393;BMP280;31129;44.810;10.334;2023-04-06T06:31:22;101113.28;;;6.68
45393;BMP280;31129;44.810;10.334;2023-04-06T06:33:48;101112.50;;;6.84
45393;BMP280;31129;44.810;10.334;2023-04-06T06:36:16;101103.38;;;6.78
45393;BMP280;31129;44.810;10.334;2023-04-06T06:38:42;101108.28;;;6.67
45393;BMP280;31129;44.810;10.334;2023-04-06T06:41:08;101115.22;;;6.68
45393;BMP280;31129;44.810;10.334;2023-04-06T06:43:35;101115.53;;;6.86
45393;BMP280;31129;44.810;10.334;2023-04-06T06:46:05;101116.28;;;6.86
45393;BMP280;31129;44.810;10.334;2023-04-06T06:48:31;101117.06;;;6.87
45393;BMP280;31129;44.810;10.334;2023-04-06T06:50:57;101121.72;;;7.03
45393;BMP280;31129;44.810;10.334;2023-04-06T06:53:23;101122.06;;;7.05
45393;BMP280;31129;44.810;10.334;2023-04-06T06:55:49;101131.78;;;7.18
45393;BMP280;31129;44.810;10.334;2023-04-06T06:58:15;101127.53;;;7.17
45393;BMP280;31129;44.810;10.334;2023-04-06T07:00:40;101125.03;;;7.39
45393;BMP280;31129;44.810;10.334;2023-04-06T07:03:06;101116.63;;;7.34
45393;BMP280;31129;44.810;10.334;2023-04-06T07:05:32;101115.47;;;7.35
45393;BMP280;31129;44.810;10.334;2023-04-06T07:07:58;101120.25;;;7.43
45393;BMP280;31129;44.810;10.334;2023-04-06T07:10:24;101129.34;;;7.78
45393;BMP280;31129;44.810;10.334;2023-04-06T07:12:51;101127.19;;;7.86
45393;BMP280;31129;44.810;10.334;2023-04-06T07:15:16;101135.03;;;7.84
45393;BMP280;31129;44.810;10.334;2023-04-06T07:17:43;101135.25;;;8.02
45393;BMP280;31129;44.810;10.334;2023-04-06T07:20:11;101134.59;;;8.11
45393;BMP280;31129;44.810;10.334;2023-04-06T07:22:42;101125.69;;;8.10
45393;BMP280;31129;44.810;10.334;2023-04-06T07:25:08;101133.63;;;8.17
45393;BMP280;31129;44.810;10.334;2023-04-06T07:27:33;101137.00;;;8.21
45393;BMP280;31129;44.810;10.334;2023-04-06T07:29:59;101137.75;;;8.22
45393;BMP280;31129;44.810;10.334;2023-04-06T07:32:25;101138.50;;;8.22
45393;BMP280;31129;44.810;10.334;2023-04-06T07:34:51;101138.31;;;8.42
45393;BMP280;31129;44.810;10.334;2023-04-06T07:37:17;101134.69;;;8.58
45393;BMP280;31129;44.810;10.334;2023-04-06T07:39:43;101137.31;;;8.62
45393;BMP280;31129;44.810;10.334;2023-04-06T07:42:09;101133.94;;;8.57
45393;BMP280;31129;44.810;10.334;2023-04-06T07:44:36;101140.75;;;8.75
45393;BMP280;31129;44.810;10.334;2023-04-06T07:47:01;101143.25;;;8.82
45393;BMP280;31129;44.810;10.334;2023-04-06T07:49:30;101147.25;;;8.90
45393;BMP280;31129;44.810;10.334;2023-04-06T07:51:55;101146.44;;;9.02
45393;BMP280;31129;44.810;10.334;2023-04-06T07:54:21;101137.13;;;9.12
45393;BMP280;31129;44.810;10.334;2023-04-06T07:56:46;101139.94;;;9.21
45393;BMP280;31129;44.810;10.334;2023-04-06T07:59:12;101153.75;;;9.27
45393;BMP280;31129;44.810;10.334;2023-04-06T08:01:38;101144.81;;;9.48
45393;BMP280;31129;44.810;10.334;2023-04-06T08:04:04;101156.59;;;9.45
45393;BMP280;31129;44.810;10.334;2023-04-06T08:06:30;101149.94;;;9.46
45393;BMP280;31129;44.810;10.334;2023-04-06T08:08:55;101153.34;;;9.59
45393;BMP280;31129;44.810;10.334;2023-04-06T08:11:21;101151.75;;;9.71
45393;BMP280;31129;44.810;10.334;2023-04-06T08:13:46;101153.66;;;9.61
45393;BMP280;31129;44.810;10.334;2023-04-06T08:16:12;101152.84;;;9.74
45393;BMP280;31129;44.810;10.334;2023-04-06T08:18:40;101146.19;;;9.75
45393;BMP280;31129;44.810;10.334;2023-04-06T08:21:05;101145.31;;;9.87
45393;BMP280;31129;44.810;10.334;2023-04-06T08:23:31;101153.38;;;9.90
45393;BMP280;31129;44.810;10.334;2023-04-06T08:25:56;101146.41;;;9.89
45393;BMP280;31129;44.810;10.334;2023-04-06T08:28:22;101155.16;;;10.15
45393;BMP280;31129;44.810;10.334;2023-04-06T08:30:48;101145.84;;;10.04
45393;BMP280;31129;44.810;10.334;2023-04-06T08:33:14;101144.63;;;10.05
45393;BMP280;31129;44.810;10.334;2023-04-06T08:35:39;101147.03;;;10.33
45393;BMP280;31129;44.810;10.334;2023-04-06T08:38:05;101143.19;;;10.22
45393;BMP280;31129;44.810;10.334;2023-04-06T08:40:36;101143.94;;;10.13
45393;BMP280;31129;44.810;10.334;2023-04-06T08:43:03;101150.78;;;10.36
45393;BMP280;31129;44.810;10.334;2023-04-06T08:45:33;101144.44;;;10.39
45393;BMP280;31129;44.810;10.334;2023-04-06T08:47:59;101147.34;;;10.36
45393;BMP280;31129;44.810;10.334;2023-04-06T08:50:28;101145.19;;;10.30
45393;BMP280;31129;44.810;10.334;2023-04-06T08:52:55;101144.97;;;10.56
45393;BMP280;31129;44.810;10.334;2023-04-06T08:55:22;101138.13;;;10.69
45393;BMP280;31129;44.810;10.334;2023-04-06T08:57:48;101147.53;;;10.78
45393;BMP280;31129;44.810;10.334;2023-04-06T09:00:14;101136.94;;;10.80
45393;BMP280;31129;44.810;10.334;2023-04-06T09:02:42;101140.72;;;11.00
45393;BMP280;31129;44.810;10.334;2023-04-06T09:05:08;101139.81;;;11.13
45393;BMP280;31129;44.810;10.334;2023-04-06T09:07:38;101138.88;;;11.25
45393;BMP280;31129;44.810;10.334;2023-04-06T09:10:05;101141.47;;;11.19
45393;BMP280;31129;44.810;10.334;2023-04-06T09:12:31;101132.97;;;11.17
45393;BMP280;31129;44.810;10.334;2023-04-06T09:14:58;101132.63;;;11.43
45393;BMP280;31129;44.810;10.334;2023-04-06T09:17:29;101133.38;;;11.52
45393;BMP280;31129;44.810;10.334;2023-04-06T09:19:55;101128.56;;;11.47
45393;BMP280;31129;44.810;10.334;2023-04-06T09:22:21;101134.81;;;11.71
45393;BMP280;31129;44.810;10.334;2023-04-06T09:24:52;101133.47;;;11.67
45393;BMP280;31129;44.810;10.334;2023-04-06T09:27:31;101120.75;;;11.55
45393;BMP280;31129;44.810;10.334;2023-04-06T09:30:10;101126.94;;;11.64
45393;BMP280;31129;44.810;10.334;2023-04-06T09:35:12;101126.09;;;11.91
45393;BMP280;31129;44.810;10.334;2023-04-06T09:37:37;101117.19;;;12.05
45393;BMP280;31129;44.810;10.334;2023-04-06T09:40:07;101110.72;;;11.94
45393;BMP280;31129;44.810;10.334;2023-04-06T09:42:33;101122.34;;;11.80
45393;BMP280;31129;44.810;10.334;2023-04-06T09:45:00;101104.94;;;11.92
45393;BMP280;31129;44.810;10.334;2023-04-06T09:47:26;101107.16;;;12.12
45393;BMP280;31129;44.810;10.334;2023-04-06T09:50:01;101099.34;;;12.19
45393;BMP280;31129;44.810;10.334;2023-04-06T09:52:34;101102.69;;;12.38
45393;BMP280;31129;44.810;10.334;2023-04-06T09:55:04;101097.19;;;12.47
45393;BMP280;31129;44.810;10.334;2023-04-06T09:57:58;101093.38;;;12.44
45393;BMP280;31129;44.810;10.334;2023-04-06T10:00:28;101100.19;;;12.49
45393;BMP280;31129;44.810;10.334;2023-04-06T10:08:11;101093.34;;;12.83
45393;BMP280;31129;44.810;10.334;2023-04-06T10:10:37;101077.59;;;12.93
45393;BMP280;31129;44.810;10.334;2023-04-06T10:13:03;101078.06;;;13.06
45393;BMP280;31129;44.810;10.334;2023-04-06T10:15:30;101078.84;;;13.06
45393;BMP280;31129;44.810;10.334;2023-04-06T10:18:00;101078.16;;;13.11
45393;BMP280;31129;44.810;10.334;2023-04-06T10:22:56;101077.78;;;13.04
45393;BMP280;31129;44.810;10.334;2023-04-06T10:25:31;101079.88;;;13.09
45393;BMP280;31129;44.810;10.334;2023-04-06T10:28:07;101072.88;;;13.08
45393;BMP280;31129;44.810;10.334;2023-04-06T10:30:34;101072.31;;;13.33
45393;BMP280;31129;44.810;10.334;2023-04-06T10:33:01;101069.28;;;13.31
45393;BMP280;31129;44.810;10.334;2023-04-06T10:35:37;101062.09;;;13.19
45393;BMP280;31129;44.810;10.334;2023-04-06T10:38:05;101067.00;;;13.15
45393;BMP280;31129;44.810;10.334;2023-04-06T10:40:31;101063.88;;;13.22
45393;BMP280;31129;44.810;10.334;2023-04-06T10:45:35;101063.09;;;13.36
45393;BMP280;31129;44.810;10.334;2023-04-06T10:48:12;101068.63;;;13.57
45393;BMP280;31129;44.810;10.334;2023-04-06T10:50:39;101065.84;;;13.71
45393;BMP280;31129;44.810;10.334;2023-04-06T10:53:05;101061.66;;;13.76
45393;BMP280;31129;44.810;10.334;2023-04-06T10:55:31;101064.50;;;14.02
45393;BMP280;31129;44.810;10.334;2023-04-06T10:57:57;101059.38;;;14.09
45393;BMP280;31129;44.810;10.334;2023-04-06T11:00:23;101056.88;;;14.11
45393;BMP280;31129;44.810;10.334;2023-04-06T11:02:49;101061.22;;;13.98
45393;BMP280;31129;44.810;10.334;2023-04-06T11:05:15;101054.94;;;14.17
45393;BMP280;31129;44.810;10.334;2023-04-06T11:07:41;101049.34;;;14.26
45393;BMP280;31129;44.810;10.334;2023-04-06T11:10:07;101042.97;;;13.95
45393;BMP280;31129;44.810;10.334;2023-04-06T11:12:33;101030.00;;;13.95
45393;BMP280;31129;44.810;10.334;2023-04-06T11:15:01;101035.72;;;13.92
45393;BMP280;31129;44.810;10.334;2023-04-06T11:17:38;101029.66;;;13.87
45393;BMP280;31129;44.810;10.334;2023-04-06T11:20:09;101022.81;;;13.98
45393;BMP280;31129;44.810;10.334;2023-04-06T11:22:35;101022.53;;;14.16
45393;BMP280;31129;44.810;10.334;2023-04-06T11:25:05;101017.19;;;14.33
45393;BMP280;31129;44.810;10.334;2023-04-06T11:27:32;101007.22;;;14.35
45393;BMP280;31129;44.810;10.334;2023-04-06T11:30:00;101008.72;;;14.36
45393;BMP280;31129;44.810;10.334;2023-04-06T11:32:25;101008.47;;;14.60
45393;BMP280;31129;44.810;10.334;2023-04-06T11:34:51;101002.22;;;14.59
45393;BMP280;31129;44.810;10.334;2023-04-06T11:37:17;100999.63;;;14.50
45393;BMP280;31129;44.810;10.334;2023-04-06T11:39:50;100993.66;;;14.52
45393;BMP280;31129;44.810;10.334;2023-04-06T11:42:24;100989.91;;;14.49
45393;BMP280;31129;44.810;10.334;2023-04-06T11:44:53;100989.84;;;14.70
45393;BMP280;31129;44.810;10.334;2023-04-06T11:47:19;100989.63;;;14.79
45393;BMP280;31129;44.810;10.334;2023-04-06T11:49:45;100981.34;;;14.42
45393;BMP280;31129;44.810;10.334;2023-04-06T11:52:19;100982.50;;;14.35
45393;BMP280;31129;44.810;10.334;2023-04-06T11:54:46;100983.94;;;14.25
45393;BMP280;31129;44.810;10.334;2023-04-06T11:57:12;100975.09;;;14.41
45393;BMP280;31129;44.810;10.334;2023-04-06T11:59:37;100974.59;;;14.69
45393;BMP280;31129;44.810;10.334;2023-04-06T12:02:03;100979.22;;;14.88
45393;BMP280;31129;44.810;10.334;2023-04-06T12:04:29;100967.41;;;15.14
45393;BMP280;31129;44.810;10.334;2023-04-06T12:06:55;100967.59;;;15.05
45393;BMP280;31129;44.810;10.334;2023-04-06T12:09:20;100959.75;;;14.92
45393;BMP280;31129;44.810;10.334;2023-04-06T12:11:46;100956.66;;;14.79
45393;BMP280;31129;44.810;10.334;2023-04-06T12:14:12;100961.91;;;15.14
45393;BMP280;31129;44.810;10.334;2023-04-06T12:16:38;100951.75;;;15.36
45393;BMP280;31129;44.810;10.334;2023-04-06T12:19:03;100964.41;;;15.17
45393;BMP280;31129;44.810;10.334;2023-04-06T12:21:30;100962.38;;;15.12
45393;BMP280;31129;44.810;10.334;2023-04-06T12:23:57;100960.63;;;15.09
45393;BMP280;31129;44.810;10.334;2023-04-06T12:26:22;100958.69;;;15.15
45393;BMP280;31129;44.810;10.334;2023-04-06T12:28:48;100956.97;;;15.29
45393;BMP280;31129;44.810;10.334;2023-04-06T12:31:17;100944.56;;;15.45
45393;BMP280;31129;44.810;10.334;2023-04-06T12:33:46;100938.38;;;15.66
45393;BMP280;31129;44.810;10.334;2023-04-06T12:36:15;100948.88;;;15.68
45393;BMP280;31129;44.810;10.334;2023-04-06T12:38:41;100939.09;;;15.56
45393;BMP280;31129;44.810;10.334;2023-04-06T12:41:07;100944.06;;;15.57
45393;BMP280;31129;44.810;10.334;2023-04-06T12:43:33;100943.19;;;15.88
45393;BMP280;31129;44.810;10.334;2023-04-06T12:45:59;100933.66;;;15.78
45393;BMP280;31129;44.810;10.334;2023-04-06T12:48:25;100937.97;;;16.29
45393;BMP280;31129;44.810;10.334;2023-04-06T12:51:00;100926.19;;;16.68
45393;BMP280;31129;44.810;10.334;2023-04-06T12:53:26;100921.19;;;17.29
45393;BMP280;31129;44.810;10.334;2023-04-06T12:55:53;100920.84;;;16.92
45393;BMP280;31129;44.810;10.334;2023-04-06T12:58:19;100920.41;;;16.66
45393;BMP280;31129;44.810;10.334;2023-04-06T13:00:46;100926.63;;;16.88
45393;BMP280;31129;44.810;10.334;2023-04-06T13:03:11;100925.66;;;16.69
45393;BMP280;31129;44.810;10.334;2023-04-06T13:05:43;100922.19;;;16.35
45393;BMP280;31129;44.810;10.334;2023-04-06T13:08:09;100920.41;;;16.32
45393;BMP280;31129;44.810;10.334;2023-04-06T13:10:35;100912.88;;;16.72
45393;BMP280;31129;44.810;10.334;2023-04-06T13:13:00;100922.69;;;16.28
45393;BMP280;31129;44.810;10.334;2023-04-06T13:15:26;100923.44;;;16.34
45393;BMP280;31129;44.810;10.334;2023-04-06T13:17:51;100908.66;;;16.54
45393;BMP280;31129;44.810;10.334;2023-04-06T13:20:17;100910.44;;;16.51
45393;BMP280;31129;44.810;10.334;2023-04-06T13:22:42;100912.63;;;16.75
45393;BMP280;31129;44.810;10.334;2023-04-06T13:25:08;100911.72;;;17.19
45393;BMP280;31129;44.810;10.334;2023-04-06T13:27:33;100904.31;;;16.98
45393;BMP280;31129;44.810;10.334;2023-04-06T13:30:01;100900.38;;;16.54
45393;BMP280;31129;44.810;10.334;2023-04-06T13:32:27;100907.13;;;16.59
45393;BMP280;31129;44.810;10.334;2023-04-06T13:34:56;100889.69;;;17.14
45393;BMP280;31129;44.810;10.334;2023-04-06T13:37:22;100882.22;;;17.50
45393;BMP280;31129;44.810;10.334;2023-04-06T13:39:47;100883.44;;;17.90
45393;BMP280;31129;44.810;10.334;2023-04-06T13:42:12;100883.53;;;17.43
45393;BMP280;31129;44.810;10.334;2023-04-06T13:44:38;100884.69;;;17.12
45393;BMP280;31129;44.810;10.334;2023-04-06T13:47:03;100885.81;;;16.76
45393;BMP280;31129;44.810;10.334;2023-04-06T13:49:29;100873.75;;;17.37
45393;BMP280;31129;44.810;10.334;2023-04-06T13:51:55;100878.63;;;17.60
45393;BMP280;31129;44.810;10.334;2023-04-06T13:54:21;100865.25;;;17.70
45393;BMP280;31129;44.810;10.334;2023-04-06T13:56:46;100861.97;;;18.07
45393;BMP280;31129;44.810;10.334;2023-04-06T13:59:17;100856.31;;;18.18
45393;BMP280;31129;44.810;10.334;2023-04-06T14:01:42;100858.59;;;17.90
45393;BMP280;31129;44.810;10.334;2023-04-06T14:04:07;100847.56;;;17.84
45393;BMP280;31129;44.810;10.334;2023-04-06T14:06:33;100851.25;;;17.68